Sullivan, Missouri
Current Conditions -  °F | °C
As of 5:55 PM on Monday 22 Dec 2014 (Local Time) from KFYG Reporting Station
Haze Haze  
Wind Chill: 45°   Ceiling: 600
Heat Index: 48°   Visibility: 4mi
Dew Point: 46°   Wind: 7mph
Humidity: 93%   Direction: 130°SE
Pressure: 29.51"   Gusts: NA
Location:  38.21°N, 91.16°W
Report Text: KFYG 222355Z AUTO 13006KT 4SM BR BKN006 OVC028 09/08 A2951 RMK AO2
Loading
Personal Weather Stations






























Interactive Weather Map New forecast layout! Learn more

10-Day Weather Forecast

Advertisements
Track Severe Weather on mobile